createdAt,value
2019-04-25T00:01:12.773Z,11.80
2019-04-25T00:03:15.233Z,11.70
2019-04-25T00:05:17.111Z,11.70
2019-04-25T00:07:18.377Z,11.60
2019-04-25T00:09:21.887Z,11.70
2019-04-25T00:11:24.426Z,11.90
2019-04-25T00:13:27.590Z,12.00
2019-04-25T00:15:29.385Z,12.20
2019-04-25T00:17:31.526Z,12.40
2019-04-25T00:19:34.137Z,12.40
2019-04-25T00:21:39.239Z,12.40
2019-04-25T00:23:42.610Z,12.50
2019-04-25T00:25:47.803Z,12.60
2019-04-25T00:27:49.501Z,12.80
2019-04-25T00:29:51.672Z,13.00
2019-04-25T00:31:54.106Z,12.90
2019-04-25T00:33:55.434Z,13.10
2019-04-25T00:35:56.873Z,13.20
2019-04-25T00:37:58.189Z,13.30
2019-04-25T00:40:01.477Z,13.30
2019-04-25T00:42:03.041Z,13.50
2019-04-25T00:44:04.406Z,13.50
2019-04-25T00:46:05.682Z,13.60
2019-04-25T00:48:06.937Z,13.50
2019-04-25T00:50:08.546Z,13.50
2019-04-25T00:52:11.618Z,13.60
2019-04-25T00:54:13.068Z,13.60
2019-04-25T00:56:14.334Z,13.50
2019-04-25T00:58:21.492Z,13.50
2019-04-25T01:00:33.773Z,13.50
2019-04-25T01:02:36.949Z,13.50
2019-04-25T01:04:38.327Z,13.40
2019-04-25T01:06:41.578Z,13.50
2019-04-25T01:08:43.362Z,13.50
2019-04-25T01:10:45.826Z,13.40
2019-04-25T01:12:48.175Z,13.40
2019-04-25T01:14:50.445Z,13.40
2019-04-25T01:16:53.897Z,13.40
2019-04-25T01:18:55.825Z,13.30
2019-04-25T01:20:57.366Z,13.30
2019-04-25T01:23:00.901Z,13.30
2019-04-25T01:25:08.080Z,13.20
2019-04-25T01:27:09.746Z,13.20
2019-04-25T01:29:10.992Z,13.20
2019-04-25T01:31:14.969Z,13.20
2019-04-25T01:33:16.429Z,13.10
2019-04-25T01:35:19.937Z,13.00
2019-04-25T01:37:33.793Z,13.00
2019-04-25T01:39:37.125Z,13.00
2019-04-25T01:41:44.144Z,13.10
2019-04-25T01:43:48.757Z,13.10
2019-04-25T01:45:51.713Z,13.20
2019-04-25T01:47:54.346Z,13.20
2019-04-25T01:49:56.696Z,13.10
2019-04-25T01:51:58.613Z,13.20
2019-04-25T01:54:00.972Z,13.20
2019-04-25T01:56:05.884Z,13.20
2019-04-25T01:58:05.662Z,13.20
2019-04-25T02:00:09.429Z,13.10
2019-04-25T02:02:14.050Z,13.00
2019-04-25T02:04:15.574Z,13.00
2019-04-25T02:06:16.841Z,13.00
2019-04-25T02:08:18.206Z,13.00
2019-04-25T02:10:19.933Z,12.90
2019-04-25T02:12:23.567Z,12.90
2019-04-25T02:14:24.979Z,12.90
2019-04-25T02:16:26.316Z,12.90
2019-04-25T02:18:27.573Z,12.70
2019-04-25T02:20:29.295Z,12.60
2019-04-25T02:22:30.563Z,12.60
2019-04-25T02:24:33.711Z,12.60
2019-04-25T02:26:35.180Z,12.70
2019-04-25T02:28:36.451Z,12.60
2019-04-25T02:30:38.077Z,12.50
2019-04-25T02:32:39.443Z,12.50
2019-04-25T02:34:40.713Z,12.40
2019-04-25T02:36:46.434Z,12.30
2019-04-25T02:38:45.282Z,12.20
2019-04-25T02:40:46.560Z,12.20
2019-04-25T02:42:47.927Z,12.30
2019-04-25T02:44:51.093Z,12.30
2019-04-25T02:46:59.090Z,12.30
2019-04-25T02:49:06.551Z,12.40
2019-04-25T02:51:07.646Z,12.30
2019-04-25T02:53:28.802Z,12.30
2019-04-25T02:55:34.103Z,12.20
2019-04-25T02:57:34.562Z,11.90
2019-04-25T02:59:37.052Z,11.60
2019-04-25T03:01:39.721Z,11.40
2019-04-25T03:03:40.998Z,11.30
2019-04-25T03:05:42.292Z,11.30
2019-04-25T03:07:44.538Z,11.00
2019-04-25T03:09:46.710Z,10.80
2019-04-25T03:11:47.976Z,10.80
2019-04-25T03:13:49.348Z,10.80
2019-04-25T03:15:53.514Z,10.90
2019-04-25T03:17:54.838Z,11.10
2019-04-25T03:19:59.338Z,11.10
2019-04-25T03:22:06.783Z,11.10
2019-04-25T03:24:11.388Z,11.20
2019-04-25T03:26:09.865Z,11.30
2019-04-25T03:28:11.133Z,11.30
2019-04-25T03:30:14.908Z,11.30
2019-04-25T03:32:19.688Z,11.30
2019-04-25T03:34:20.762Z,11.10
2019-04-25T03:36:23.861Z,11.10
2019-04-25T03:38:25.412Z,11.20
2019-04-25T03:40:26.681Z,11.00
2019-04-25T03:42:27.953Z,11.20
2019-04-25T03:44:29.244Z,11.30
2019-04-25T03:46:30.713Z,11.30
2019-04-25T03:48:32.048Z,11.40
2019-04-25T03:50:34.108Z,11.50
2019-04-25T03:52:35.503Z,11.50
2019-04-25T03:54:36.864Z,11.60
2019-04-25T03:56:49.655Z,11.70
2019-04-25T03:58:41.768Z,11.60
2019-04-25T04:00:44.734Z,11.60
2019-04-25T04:02:46.262Z,11.60
2019-04-25T04:04:47.544Z,11.50
2019-04-25T04:06:50.445Z,11.50
2019-04-25T04:08:53.799Z,11.50
2019-04-25T04:10:55.736Z,11.50
2019-04-25T04:12:57.042Z,11.50
2019-04-25T04:14:58.732Z,11.50
2019-04-25T04:17:15.125Z,11.50
2019-04-25T04:19:16.917Z,11.30
2019-04-25T04:21:20.210Z,10.90
2019-04-25T04:23:23.464Z,10.90
2019-04-25T04:25:25.002Z,10.60
2019-04-25T04:27:26.757Z,10.70
2019-04-25T04:29:28.035Z,10.50
2019-04-25T04:31:29.653Z,10.60
2019-04-25T04:33:34.022Z,10.60
2019-04-25T04:35:34.186Z,10.60
2019-04-25T04:37:36.453Z,10.70
2019-04-25T04:39:37.717Z,10.60
2019-04-25T04:41:38.978Z,10.60
2019-04-25T04:43:40.255Z,10.60
2019-04-25T04:45:43.277Z,10.70
2019-04-25T04:47:46.682Z,10.80
2019-04-25T04:49:47.950Z,10.90
2019-04-25T04:51:49.268Z,10.90
2019-04-25T04:53:50.574Z,11.00
2019-04-25T04:55:51.861Z,10.90
2019-04-25T04:57:54.252Z,10.80
2019-04-25T04:59:55.661Z,10.80
2019-04-25T05:02:11.596Z,10.80
2019-04-25T05:04:16.271Z,10.70
2019-04-25T05:06:21.438Z,10.70
2019-04-25T05:08:33.897Z,10.80
2019-04-25T05:10:35.286Z,10.80
2019-04-25T05:12:36.717Z,10.70
2019-04-25T05:14:38.023Z,10.80
2019-04-25T05:16:39.277Z,10.90
2019-04-25T05:18:40.551Z,10.90
2019-04-25T05:20:42.061Z,10.90
2019-04-25T05:22:44.542Z,10.90
2019-04-25T05:24:46.091Z,11.00
2019-04-25T05:26:47.424Z,11.00
2019-04-25T05:28:48.707Z,11.00
2019-04-25T05:30:57.850Z,11.00
2019-04-25T05:32:59.130Z,11.00
2019-04-25T05:35:00.418Z,11.00
2019-04-25T05:37:01.690Z,11.10
2019-04-25T05:39:06.679Z,11.00
2019-04-25T05:41:14.776Z,11.10
2019-04-25T05:43:16.347Z,11.20
2019-04-25T05:45:21.170Z,11.30
2019-04-25T05:47:25.661Z,11.30
2019-04-25T05:49:26.367Z,11.30
2019-04-25T05:51:27.794Z,11.40
2019-04-25T05:53:29.231Z,11.50
2019-04-25T05:55:30.751Z,11.50
2019-04-25T05:57:45.155Z,11.60
2019-04-25T05:59:35.193Z,11.60
2019-04-25T06:01:36.485Z,11.70
2019-04-25T06:03:37.800Z,11.70
2019-04-25T06:05:39.074Z,11.70
2019-04-25T06:07:40.342Z,11.80
2019-04-25T06:09:44.443Z,11.90
2019-04-25T06:14:03.379Z,12.00
2019-04-25T06:16:07.073Z,12.10
2019-04-25T06:18:16.536Z,12.20
2019-04-25T06:20:28.637Z,12.30
2019-04-25T06:22:48.246Z,12.30
2019-04-25T06:24:54.308Z,12.40
2019-04-25T06:26:57.857Z,12.50
2019-04-25T06:28:59.905Z,12.50
2019-04-25T06:31:01.304Z,12.60
2019-04-25T06:33:03.307Z,12.60
2019-04-25T06:35:05.189Z,12.70
2019-04-25T06:37:06.497Z,12.80
2019-04-25T06:39:08.279Z,12.80
2019-04-25T06:41:09.621Z,12.80
2019-04-25T06:43:10.885Z,12.90
2019-04-25T06:45:34.440Z,12.90
2019-04-25T06:47:40.789Z,13.00
2019-04-25T06:49:43.216Z,13.10
2019-04-25T06:51:48.298Z,13.20
2019-04-25T06:53:49.595Z,13.30
2019-04-25T06:55:50.909Z,13.40
2019-04-25T06:57:53.947Z,13.50
2019-04-25T06:59:55.422Z,13.60
2019-04-25T07:01:56.741Z,13.70
2019-04-25T07:03:58.007Z,13.80
2019-04-25T07:05:59.446Z,13.90
2019-04-25T07:08:00.789Z,14.00
2019-04-25T07:10:05.251Z,14.10
2019-04-25T07:12:06.753Z,14.20
2019-04-25T07:14:08.226Z,14.20
2019-04-25T07:16:09.565Z,14.20
2019-04-25T07:18:11.010Z,14.30
2019-04-25T07:20:13.838Z,14.40
2019-04-25T07:22:15.464Z,14.40
2019-04-25T07:24:17.611Z,14.50
2019-04-25T07:26:20.848Z,14.60
2019-04-25T07:28:35.683Z,14.60
2019-04-25T07:30:50.107Z,14.70
2019-04-25T07:32:49.648Z,14.90
2019-04-25T07:34:53.607Z,15.10
2019-04-25T07:36:55.141Z,15.10
2019-04-25T07:39:05.868Z,15.20
2019-04-25T07:40:59.465Z,15.30
2019-04-25T07:43:00.654Z,15.30
2019-04-25T07:45:04.190Z,15.40
2019-04-25T07:47:05.644Z,15.50
2019-04-25T07:49:07.198Z,15.50
2019-04-25T07:51:08.453Z,15.60
2019-04-25T07:53:09.646Z,15.70
2019-04-25T07:55:11.520Z,15.90
2019-04-25T07:57:13.518Z,16.00
2019-04-25T07:59:14.977Z,16.10
2019-04-25T08:01:16.179Z,16.30
2019-04-25T08:03:17.417Z,16.30
2019-04-25T08:05:18.571Z,16.40
2019-04-25T08:07:19.846Z,16.50
2019-04-25T08:09:20.989Z,16.60
2019-04-25T08:11:23.655Z,16.60
2019-04-25T08:13:28.744Z,16.70
2019-04-25T08:15:35.000Z,16.70
2019-04-25T08:17:47.465Z,16.60
2019-04-25T08:19:48.703Z,16.70
2019-04-25T08:21:49.855Z,16.90
2019-04-25T08:23:51.337Z,17.00
2019-04-25T08:25:54.339Z,16.90
2019-04-25T08:27:55.571Z,17.00
2019-04-25T08:29:56.809Z,17.00
2019-04-25T08:31:57.970Z,16.90
2019-04-25T08:33:59.117Z,16.90
2019-04-25T08:36:06.653Z,16.80
2019-04-25T08:38:06.064Z,16.70
2019-04-25T08:40:07.421Z,16.60
2019-04-25T08:42:08.571Z,16.60
2019-04-25T08:44:09.724Z,16.60
2019-04-25T08:46:10.881Z,16.70
2019-04-25T08:48:13.612Z,16.90
2019-04-25T08:50:28.934Z,17.10
2019-04-25T08:52:24.286Z,17.20
2019-04-25T08:54:35.059Z,17.30
2019-04-25T08:56:37.769Z,17.30
2019-04-25T08:59:05.501Z,17.40
2019-04-25T09:01:04.271Z,17.60
2019-04-25T09:03:16.377Z,18.00
2019-04-25T09:05:20.027Z,18.20
2019-04-25T09:07:21.209Z,18.30
2019-04-25T09:09:23.568Z,18.20
2019-04-25T09:11:24.910Z,18.30
2019-04-25T09:13:26.055Z,18.50
2019-04-25T09:15:27.206Z,18.60
2019-04-25T09:17:28.361Z,18.60
2019-04-25T09:19:29.810Z,18.60
2019-04-25T09:21:30.965Z,18.70
2019-04-25T09:23:34.423Z,18.80
2019-04-25T09:25:35.871Z,19.00
2019-04-25T09:27:39.699Z,19.20
2019-04-25T09:29:40.953Z,19.30
2019-04-25T09:31:44.721Z,19.40
2019-04-25T09:33:46.760Z,19.20
2019-04-25T09:35:48.152Z,18.80
2019-04-25T09:37:49.442Z,18.90
2019-04-25T09:39:53.762Z,19.00
2019-04-25T09:41:56.831Z,19.10
2019-04-25T09:44:00.012Z,18.70
2019-04-25T09:46:14.756Z,18.70
2019-04-25T09:48:23.649Z,18.60
2019-04-25T09:50:29.541Z,18.80
2019-04-25T09:52:30.809Z,19.00
2019-04-25T09:54:33.977Z,19.50
2019-04-25T09:56:40.505Z,19.70
2019-04-25T09:58:45.950Z,20.00
2019-04-25T10:00:49.158Z,20.10
2019-04-25T10:02:50.424Z,20.20
2019-04-25T10:04:51.823Z,19.90
2019-04-25T10:06:53.586Z,19.90
2019-04-25T10:08:54.965Z,19.90
2019-04-25T10:10:56.222Z,20.10
2019-04-25T10:12:57.808Z,20.10
2019-04-25T10:15:12.196Z,19.80
2019-04-25T10:17:13.784Z,20.00
2019-04-25T10:19:15.477Z,20.10
2019-04-25T10:21:17.143Z,19.90
2019-04-25T10:23:18.306Z,19.90
2019-04-25T10:25:19.797Z,19.90
2019-04-25T10:27:21.215Z,20.10
2019-04-25T10:29:22.569Z,20.10
2019-04-25T10:31:23.871Z,20.10
2019-04-25T10:33:25.309Z,20.10
2019-04-25T10:35:26.686Z,19.70
2019-04-25T10:37:27.962Z,19.50
2019-04-25T10:39:29.557Z,19.60
2019-04-25T10:41:30.926Z,19.80
2019-04-25T10:43:34.242Z,20.00
2019-04-25T10:45:35.802Z,19.80
2019-04-25T10:47:37.493Z,20.00
2019-04-25T10:49:39.833Z,20.30
2019-04-25T10:51:42.778Z,20.30
2019-04-25T10:53:46.008Z,20.50
2019-04-25T10:55:48.287Z,20.70
2019-04-25T10:57:49.498Z,20.70
2019-04-25T11:00:00.414Z,20.60
2019-04-25T11:01:55.126Z,20.60
2019-04-25T11:04:04.753Z,20.60
2019-04-25T11:06:06.454Z,21.00
2019-04-25T11:08:07.897Z,20.90
2019-04-25T11:10:09.366Z,20.90
2019-04-25T11:12:11.222Z,21.00
2019-04-25T11:14:13.492Z,21.40
2019-04-25T11:16:15.691Z,21.70
2019-04-25T11:18:16.942Z,22.10
2019-04-25T11:20:23.196Z,21.30
2019-04-25T11:22:24.644Z,21.50
2019-04-25T11:24:25.864Z,21.90
2019-04-25T11:26:27.294Z,22.50
2019-04-25T11:28:28.600Z,22.80
2019-04-25T11:30:30.789Z,22.50
2019-04-25T11:32:33.807Z,23.00
2019-04-25T11:34:35.018Z,23.10
2019-04-25T11:36:36.181Z,23.00
2019-04-25T11:38:47.373Z,23.00
2019-04-25T11:40:56.404Z,23.00
2019-04-25T11:42:57.829Z,22.70
2019-04-25T11:44:58.976Z,22.60
2019-04-25T11:47:00.697Z,22.80
2019-04-25T11:49:01.858Z,23.10
2019-04-25T11:51:03.707Z,23.50
2019-04-25T11:53:05.016Z,23.90
2019-04-25T11:55:06.480Z,24.10
2019-04-25T11:57:07.621Z,24.30
2019-04-25T11:59:08.901Z,24.50
2019-04-25T12:01:11.258Z,24.70
2019-04-25T12:03:12.847Z,25.30
2019-04-25T12:05:15.273Z,25.40
2019-04-25T12:07:16.900Z,25.60
2019-04-25T12:09:18.949Z,25.20
2019-04-25T12:11:23.611Z,24.80
2019-04-25T12:13:26.149Z,24.40
2019-04-25T12:15:27.843Z,25.00
2019-04-25T12:17:28.991Z,25.80
2019-04-25T12:19:35.844Z,25.30
2019-04-25T12:21:34.036Z,24.20
2019-04-25T12:23:35.943Z,25.00
2019-04-25T12:25:37.108Z,25.00
2019-04-25T12:27:38.262Z,25.50
2019-04-25T12:29:39.459Z,25.80
2019-04-25T12:31:40.616Z,26.30
2019-04-25T12:33:43.370Z,26.40
2019-04-25T12:35:44.846Z,26.60
2019-04-25T12:37:46.056Z,26.70
2019-04-25T12:39:48.431Z,25.90
2019-04-25T12:41:50.463Z,25.30
2019-04-25T12:43:54.586Z,25.30
2019-04-25T12:46:04.557Z,25.20
2019-04-25T12:48:10.381Z,25.50
2019-04-25T12:50:11.536Z,26.00
2019-04-25T12:52:13.164Z,26.20
2019-04-25T12:54:14.409Z,25.90
2019-04-25T12:56:15.886Z,26.20
2019-04-25T12:58:17.149Z,26.40
2019-04-25T13:00:20.326Z,26.40
2019-04-25T13:02:23.433Z,26.80
2019-04-25T13:04:24.866Z,26.70
2019-04-25T13:06:26.009Z,26.80
2019-04-25T13:08:27.550Z,27.30
2019-04-25T13:10:28.715Z,27.30
2019-04-25T13:12:29.977Z,27.30
2019-04-25T13:14:31.186Z,27.20
2019-04-25T13:16:32.336Z,27.00
2019-04-25T13:18:33.729Z,26.90
2019-04-25T13:20:35.786Z,26.40
2019-04-25T13:22:37.042Z,26.10
2019-04-25T13:24:38.213Z,26.00
2019-04-25T13:26:41.342Z,25.80
2019-04-25T13:28:50.092Z,25.30
2019-04-25T13:31:12.334Z,25.30
2019-04-25T13:33:17.591Z,25.20
2019-04-25T13:35:20.944Z,25.40
2019-04-25T13:37:24.090Z,25.20
2019-04-25T13:39:26.268Z,25.20
2019-04-25T13:41:27.414Z,25.20
2019-04-25T13:43:28.601Z,25.30
2019-04-25T13:45:29.753Z,25.10
2019-04-25T13:47:31.911Z,25.40
2019-04-25T13:49:33.320Z,25.60
2019-04-25T13:51:34.946Z,26.20
2019-04-25T13:53:36.530Z,26.40
2019-04-25T13:55:37.815Z,26.70
2019-04-25T13:57:38.965Z,26.60
2019-04-25T13:59:40.463Z,27.30
2019-04-25T14:01:41.675Z,27.70
2019-04-25T14:03:44.399Z,28.10
2019-04-25T14:05:45.701Z,27.90
2019-04-25T14:07:46.862Z,27.80
2019-04-25T14:09:48.313Z,27.80
2019-04-25T14:11:49.545Z,27.80
2019-04-25T14:13:50.874Z,27.80
2019-04-25T14:15:53.946Z,27.70
2019-04-25T14:18:03.735Z,27.90
2019-04-25T14:20:16.531Z,28.20
2019-04-25T14:22:17.952Z,28.20
2019-04-25T14:24:20.509Z,28.90
2019-04-25T14:26:22.908Z,29.00
2019-04-25T14:28:25.242Z,29.10
2019-04-25T14:30:29.245Z,29.00
2019-04-25T14:32:30.392Z,28.90
2019-04-25T14:34:32.286Z,28.40
2019-04-25T14:36:34.656Z,28.00
2019-04-25T14:38:36.749Z,28.20
2019-04-25T14:40:38.502Z,28.30
2019-04-25T14:42:40.509Z,28.20
2019-04-25T14:44:42.243Z,27.90
2019-04-25T14:46:43.718Z,27.40
2019-04-25T14:48:44.998Z,27.00
2019-04-25T14:50:46.218Z,26.60
2019-04-25T14:52:47.366Z,26.20
2019-04-25T14:54:53.568Z,26.20
2019-04-25T14:56:59.678Z,25.80
2019-04-25T14:59:00.841Z,25.70
2019-04-25T15:01:02.302Z,25.30
2019-04-25T15:03:03.890Z,24.80
2019-04-25T15:05:05.318Z,24.70
2019-04-25T15:07:06.474Z,25.10
2019-04-25T15:09:07.630Z,25.40
2019-04-25T15:11:09.590Z,25.80
2019-04-25T15:13:11.133Z,25.60
2019-04-25T15:15:12.424Z,25.80
2019-04-25T15:17:13.722Z,26.40
2019-04-25T15:19:14.930Z,27.00
2019-04-25T15:21:18.617Z,27.60
2019-04-25T15:23:23.203Z,28.00
2019-04-25T15:25:26.161Z,28.20
2019-04-25T15:27:27.478Z,28.30
2019-04-25T15:29:28.634Z,28.40
2019-04-25T15:31:30.201Z,28.20
2019-04-25T15:33:31.502Z,28.10
2019-04-25T15:35:40.489Z,27.90
2019-04-25T15:37:53.036Z,27.90
2019-04-25T15:39:56.105Z,27.80
2019-04-25T15:41:59.165Z,27.70
2019-04-25T15:44:05.318Z,27.60
2019-04-25T15:46:08.459Z,27.40
2019-04-25T15:48:09.597Z,27.30
2019-04-25T15:50:11.394Z,27.30
2019-04-25T15:52:12.954Z,27.20
2019-04-25T15:54:14.174Z,27.10
2019-04-25T15:56:15.353Z,27.10
2019-04-25T15:58:16.496Z,27.00
2019-04-25T16:00:23.202Z,27.00
2019-04-25T16:02:24.438Z,27.10
2019-04-25T16:04:25.719Z,26.90
2019-04-25T16:06:27.843Z,27.00
2019-04-25T16:08:29.201Z,27.00
2019-04-25T16:10:30.707Z,27.00
2019-04-25T16:12:32.852Z,26.90
2019-04-25T16:14:34.140Z,26.80
2019-04-25T16:16:35.947Z,26.80
2019-04-25T16:18:37.880Z,27.10
2019-04-25T16:20:39.649Z,27.50
2019-04-25T16:22:41.361Z,28.10
2019-04-25T16:24:42.738Z,28.50
2019-04-25T16:26:43.890Z,28.60
2019-04-25T16:28:45.083Z,28.50
2019-04-25T16:30:46.217Z,28.30
2019-04-25T16:32:47.510Z,28.00
2019-04-25T16:34:48.732Z,28.10
2019-04-25T16:36:50.059Z,28.20
2019-04-25T16:38:51.420Z,27.70
2019-04-25T16:40:52.638Z,27.60
2019-04-25T16:42:53.806Z,27.50
2019-04-25T16:44:55.056Z,27.30
2019-04-25T16:46:56.302Z,27.20
2019-04-25T16:48:57.445Z,27.30
2019-04-25T16:50:58.612Z,27.60
2019-04-25T16:52:59.758Z,27.70
2019-04-25T16:55:01.281Z,27.90
2019-04-25T16:57:02.735Z,27.80
2019-04-25T16:59:04.054Z,27.80
2019-04-25T17:01:07.412Z,27.80
2019-04-25T17:03:09.380Z,27.90
2019-04-25T17:05:11.767Z,27.90
2019-04-25T17:07:13.327Z,27.70
2019-04-25T17:09:14.650Z,27.60
2019-04-25T17:11:16.101Z,27.20
2019-04-25T17:13:18.561Z,26.90
2019-04-25T17:15:38.443Z,26.60
2019-04-25T17:17:41.539Z,26.10
2019-04-25T17:19:47.510Z,25.60
2019-04-25T17:21:48.682Z,25.40
2019-04-25T17:23:49.849Z,25.20
2019-04-25T17:25:51.020Z,24.90
2019-04-25T17:27:54.426Z,24.80
2019-04-25T17:29:55.861Z,24.90
2019-04-25T17:32:03.274Z,24.70
2019-04-25T17:34:23.338Z,24.60
2019-04-25T17:36:38.704Z,24.60
2019-04-25T17:38:44.449Z,24.50
2019-04-25T17:40:45.606Z,24.60
2019-04-25T17:42:46.793Z,24.50
2019-04-25T17:44:48.395Z,24.20
2019-04-25T17:46:49.814Z,24.20
2019-04-25T17:48:51.069Z,24.00
2019-04-25T17:50:52.226Z,24.10
2019-04-25T17:52:53.396Z,24.20
2019-04-25T17:54:54.534Z,24.10
2019-04-25T17:56:56.769Z,24.00
2019-04-25T17:58:57.940Z,24.00
2019-04-25T18:00:59.366Z,24.00
2019-04-25T18:03:14.674Z,24.10
2019-04-25T18:05:16.335Z,23.90
2019-04-25T18:07:17.568Z,24.00
2019-04-25T18:09:18.721Z,24.00
2019-04-25T18:11:19.877Z,23.70
2019-04-25T18:13:21.360Z,23.60
2019-04-25T18:15:24.412Z,23.50
2019-04-25T18:17:25.903Z,23.40
2019-04-25T18:19:29.279Z,23.30
2019-04-25T18:21:30.624Z,23.40
2019-04-25T18:23:50.199Z,23.30
2019-04-25T18:26:02.314Z,23.20
2019-04-25T18:28:05.494Z,23.40
2019-04-25T18:30:07.394Z,23.30
2019-04-25T18:32:08.889Z,23.30
2019-04-25T18:34:11.965Z,23.30
2019-04-25T18:36:31.539Z,23.20
2019-04-25T18:38:37.561Z,23.30
2019-04-25T18:40:40.765Z,23.30
2019-04-25T18:42:44.202Z,23.20
2019-04-25T18:44:46.228Z,23.00
2019-04-25T18:46:47.924Z,22.90
2019-04-25T18:48:49.223Z,22.80
2019-04-25T18:50:50.665Z,22.80
2019-04-25T18:52:56.654Z,22.50
2019-04-25T18:55:02.653Z,22.40
2019-04-25T18:57:08.713Z,22.50
2019-04-25T18:59:29.863Z,22.50
2019-04-25T19:01:35.585Z,22.60
2019-04-25T19:03:47.985Z,22.50
2019-04-25T19:05:57.237Z,22.60
2019-04-25T19:07:58.459Z,22.40
2019-04-25T19:09:59.626Z,22.50
2019-04-25T19:12:00.778Z,22.30
2019-04-25T19:14:01.935Z,22.40
2019-04-25T19:16:03.071Z,22.20
2019-04-25T19:18:04.221Z,22.00
2019-04-25T19:20:05.395Z,21.20
2019-04-25T19:22:06.557Z,20.60
2019-04-25T19:24:07.721Z,20.30
2019-04-25T19:26:09.821Z,20.10
2019-04-25T19:28:11.332Z,20.30
2019-04-25T19:30:14.413Z,20.10
2019-04-25T19:32:16.086Z,20.20
2019-04-25T19:34:17.788Z,20.60
2019-04-25T19:36:20.304Z,20.90
2019-04-25T19:38:25.505Z,21.00
2019-04-25T19:40:30.358Z,21.10
2019-04-25T19:44:35.623Z,21.10
2019-04-25T19:46:38.897Z,21.00
2019-04-25T19:48:41.326Z,21.00
2019-04-25T19:50:43.025Z,20.70
2019-04-25T19:52:45.535Z,20.80
2019-04-25T19:54:47.325Z,20.80
2019-04-25T19:56:49.587Z,20.80
2019-04-25T19:58:51.146Z,20.80
2019-04-25T20:00:52.878Z,20.80
2019-04-25T20:03:11.222Z,20.70
2019-04-25T20:05:14.674Z,20.70
2019-04-25T20:07:17.858Z,20.70
2019-04-25T20:09:33.201Z,20.60
2019-04-25T20:11:36.462Z,20.60
2019-04-25T20:13:37.733Z,20.50
2019-04-25T20:15:39.058Z,20.40
2019-04-25T20:17:40.342Z,20.40
2019-04-25T20:19:41.621Z,20.30
2019-04-25T20:21:43.621Z,20.00
2019-04-25T20:23:46.483Z,19.80
2019-04-25T20:25:48.280Z,19.50
2019-04-25T20:27:50.568Z,19.00
2019-04-25T20:29:52.706Z,18.60
2019-04-25T20:31:54.884Z,18.30
2019-04-25T20:34:05.377Z,18.10
2019-04-25T20:35:59.558Z,17.60
2019-04-25T20:38:00.833Z,17.10
2019-04-25T20:40:02.622Z,17.00
2019-04-25T20:42:04.290Z,17.20
2019-04-25T20:44:05.575Z,17.40
2019-04-25T20:46:06.897Z,17.50
2019-04-25T20:48:08.242Z,17.60
2019-04-25T20:50:09.995Z,17.60
2019-04-25T20:52:11.659Z,17.60
2019-04-25T20:54:13.112Z,17.60
2019-04-25T20:56:14.441Z,17.60
2019-04-25T20:58:15.717Z,17.50
2019-04-25T21:00:39.978Z,17.40
2019-04-25T21:02:40.782Z,17.20
2019-04-25T21:04:42.156Z,17.00
2019-04-25T21:06:43.422Z,16.90
2019-04-25T21:08:44.803Z,16.80
2019-04-25T21:10:46.078Z,16.70
2019-04-25T21:12:47.364Z,16.60
2019-04-25T21:14:53.133Z,16.50
2019-04-25T21:17:12.618Z,16.50
2019-04-25T21:19:15.898Z,16.40
2019-04-25T21:21:17.273Z,16.30
2019-04-25T21:23:18.622Z,16.20
2019-04-25T21:25:20.109Z,16.10
2019-04-25T21:27:21.731Z,16.10
2019-04-25T21:29:23.000Z,16.00
2019-04-25T21:31:24.356Z,16.00
2019-04-25T21:33:25.802Z,16.00
2019-04-25T21:35:27.362Z,15.90
2019-04-25T21:37:28.633Z,15.90
2019-04-25T21:39:32.648Z,15.90
2019-04-25T21:41:38.921Z,15.90
2019-04-25T21:43:42.823Z,15.80
2019-04-25T21:45:44.421Z,15.80
2019-04-25T21:47:45.898Z,15.80
2019-04-25T21:49:47.456Z,15.80
2019-04-25T21:51:48.843Z,15.70
2019-04-25T21:53:50.214Z,15.60
2019-04-25T21:55:51.795Z,15.60
2019-04-25T21:57:55.158Z,15.60
2019-04-25T22:00:03.053Z,15.60
2019-04-25T22:02:00.715Z,15.70
2019-04-25T22:04:02.935Z,15.60
2019-04-25T22:06:05.143Z,15.60
2019-04-25T22:08:06.511Z,15.50
2019-04-25T22:10:07.958Z,15.50
2019-04-25T22:12:11.733Z,15.70
2019-04-25T22:14:13.021Z,15.70
2019-04-25T22:16:14.675Z,15.70
2019-04-25T22:18:16.243Z,15.80
2019-04-25T22:20:17.534Z,15.80
2019-04-25T22:22:18.801Z,15.70
2019-04-25T22:24:20.470Z,15.70
2019-04-25T22:26:22.414Z,15.70
2019-04-25T22:28:23.989Z,15.60
2019-04-25T22:30:25.495Z,15.70
2019-04-25T22:32:29.329Z,15.70
2019-04-25T22:34:51.302Z,15.70
2019-04-25T22:36:41.513Z,15.70
2019-04-25T22:38:42.895Z,15.90
2019-04-25T22:40:44.182Z,15.80
2019-04-25T22:42:45.730Z,16.10
2019-04-25T22:44:47.064Z,16.20
2019-04-25T22:46:48.341Z,16.30
2019-04-25T22:48:49.623Z,16.50
2019-04-25T22:50:50.921Z,16.40
2019-04-25T22:52:52.321Z,16.30
2019-04-25T22:54:53.681Z,16.00
2019-04-25T22:56:55.205Z,15.80
2019-04-25T22:58:56.824Z,15.70
2019-04-25T23:00:58.281Z,15.50
2019-04-25T23:03:02.430Z,15.30
2019-04-25T23:05:16.095Z,15.30
2019-04-25T23:07:16.799Z,15.40
2019-04-25T23:09:18.457Z,15.30
2019-04-25T23:11:20.177Z,15.40
2019-04-25T23:13:21.697Z,15.40
2019-04-25T23:15:22.991Z,15.60
2019-04-25T23:17:24.697Z,15.70
2019-04-25T23:19:26.333Z,15.60
2019-04-25T23:21:28.023Z,15.40
2019-04-25T23:23:32.238Z,15.30
2019-04-25T23:25:34.544Z,15.20
2019-04-25T23:27:38.138Z,15.30
2019-04-25T23:29:39.733Z,15.50
2019-04-25T23:31:41.781Z,15.80
2019-04-25T23:33:43.460Z,15.60
2019-04-25T23:35:47.069Z,15.60
2019-04-25T23:37:48.793Z,15.90
2019-04-25T23:39:50.147Z,16.00
2019-04-25T23:41:51.549Z,16.10
2019-04-25T23:43:52.835Z,16.10
2019-04-25T23:45:54.423Z,15.90
2019-04-25T23:47:56.002Z,15.40
2019-04-25T23:49:57.569Z,15.10
2019-04-25T23:51:58.864Z,15.10
2019-04-25T23:54:00.276Z,15.30
2019-04-25T23:56:01.563Z,15.40
2019-04-25T23:58:03.259Z,15.10
